Airfield :
LOGIN :

Register | Disclaimer

   EN    FR    IT 

 










Legend :    VFR   Marginal VFR   IFR   Intensive IFR   Very Intensive IFR
Visi :
Ceiling :
>= 8 km
>= 3000ft
5 to 8 km
1000 to 3000 ft
1500m to 5 km
500 to 1000 ft
800 to 1500m
200 to 500 ft
< 800m
< 200 ft
Symbols :   Thunderstorms  Fog  Heavy snow  Heavy precipitations  Wind > 20 kt
SIGMETs :     Misc.  Thunderstorms  Icing  Turbulence  Mountain Waves  Volcanic Ashes






- Airport Elevation : 479 ft
- IATA code : DOL


LFRG - Deauville

CURRENT METAR :
  • 301400Z AUTO 09006KT CAVOK 07/04 Q1024 NOSIG

EXPIRED METARs :
  • 301330Z AUTO 11005KT 050V150 9999 BKN013 08/05 Q1024 BECMG BKN020
  • 301300Z AUTO 08004KT 010V110 9999 BKN012 07/05 Q1024 BECMG BKN020
  • 301230Z AUTO 10005KT 060V130 9999 OVC014 06/04 Q1024 BECMG BKN020
  • 301200Z AUTO 11007KT 9999 OVC014 06/04 Q1024 TEMPO BKN009
  • 301130Z AUTO 11007KT 070V130 9999 OVC011 06/04 Q1024 TEMPO BKN009

TAF TAF LFRG
Valid from the 30 at 12:00 until the 30 at 21:00 UTC


301100Z 3012/3021 08005KT 9999 BKN020
TEMPO 3012/3014 BKN009
PROB40
TEMPO 3019/3021 BKN012
ATIS : +33 2 31 65 65 36



MET'MAP, your aeronautical weather chart ! - Copyright ORBIFLY December 2007 - Disclaimer

ORBIFLY MET'MAP TEAM :

Programming & Development : Alexandra Zaïnal
Original concept : Baudouin d'Aumeries
Technical & hardware support : Manuel Goepfert
Assistance : Marc-Olivier Méhu




SOURCES & CREDITS :

   NOAA